sensor_id;sensor_type;location;lat;lon;timestamp;pressure;altitude;pressure_sealevel;temperature;humidity
53868;BME280;41577;47.470;19.080;2023-02-05T00:00:04;101591.19;;;-1.34;80.30
53868;BME280;41577;47.470;19.080;2023-02-05T00:00:16;101600.84;;;-1.34;80.46
53868;BME280;41577;47.470;19.080;2023-02-05T00:00:27;101597.34;;;-1.35;80.19
53868;BME280;41577;47.470;19.080;2023-02-05T00:00:38;101588.66;;;-1.35;80.22
53868;BME280;41577;47.470;19.080;2023-02-05T00:00:49;101585.94;;;-1.34;80.08
53868;BME280;41577;47.470;19.080;2023-02-05T00:01:00;101583.41;;;-1.35;80.24
53868;BME280;41577;47.470;19.080;2023-02-05T00:01:11;101581.63;;;-1.35;80.19
53868;BME280;41577;47.470;19.080;2023-02-05T00:01:22;101585.25;;;-1.37;80.69
53868;BME280;41577;47.470;19.080;2023-02-05T00:01:33;101591.25;;;-1.35;80.50
53868;BME280;41577;47.470;19.080;2023-02-05T00:01:43;101583.50;;;-1.37;80.62
53868;BME280;41577;47.470;19.080;2023-02-05T00:01:54;101588.75;;;-1.37;80.42
53868;BME280;41577;47.470;19.080;2023-02-05T00:02:05;101585.50;;;-1.42;80.33
53868;BME280;41577;47.470;19.080;2023-02-05T00:02:16;101585.50;;;-1.42;80.97
53868;BME280;41577;47.470;19.080;2023-02-05T00:02:27;101589.66;;;-1.38;80.83
53868;BME280;41577;47.470;19.080;2023-02-05T00:02:38;101578.34;;;-1.38;81.02
53868;BME280;41577;47.470;19.080;2023-02-05T00:02:49;101581.03;;;-1.40;80.92
53868;BME280;41577;47.470;19.080;2023-02-05T00:03:01;101589.72;;;-1.39;80.98
53868;BME280;41577;47.470;19.080;2023-02-05T00:03:12;101577.72;;;-1.43;81.27
53868;BME280;41577;47.470;19.080;2023-02-05T00:03:23;101592.28;;;-1.38;81.28
53868;BME280;41577;47.470;19.080;2023-02-05T00:03:35;101592.34;;;-1.39;81.57
53868;BME280;41577;47.470;19.080;2023-02-05T00:03:47;101592.34;;;-1.39;81.23
53868;BME280;41577;47.470;19.080;2023-02-05T00:03:58;101597.59;;;-1.39;81.94
53868;BME280;41577;47.470;19.080;2023-02-05T00:04:10;101590.66;;;-1.40;81.51
53868;BME280;41577;47.470;19.080;2023-02-05T00:04:21;101590.66;;;-1.40;81.52
53868;BME280;41577;47.470;19.080;2023-02-05T00:04:32;101587.19;;;-1.41;81.47
53868;BME280;41577;47.470;19.080;2023-02-05T00:04:43;101590.66;;;-1.40;81.93
53868;BME280;41577;47.470;19.080;2023-02-05T00:04:55;101595.06;;;-1.41;81.74
53868;BME280;41577;47.470;19.080;2023-02-05T00:05:07;101584.47;;;-1.39;81.66
53868;BME280;41577;47.470;19.080;2023-02-05T00:05:18;101587.19;;;-1.41;81.60
53868;BME280;41577;47.470;19.080;2023-02-05T00:05:29;101589.81;;;-1.41;81.88
53868;BME280;41577;47.470;19.080;2023-02-05T00:05:40;101593.34;;;-1.42;81.34
53868;BME280;41577;47.470;19.080;2023-02-05T00:05:51;101596.84;;;-1.41;81.69
53868;BME280;41577;47.470;19.080;2023-02-05T00:06:01;101590.66;;;-1.40;81.84
53868;BME280;41577;47.470;19.080;2023-02-05T00:06:12;101598.53;;;-1.40;81.83
53868;BME280;41577;47.470;19.080;2023-02-05T00:06:23;101594.22;;;-1.41;81.34
53868;BME280;41577;47.470;19.080;2023-02-05T00:06:35;101591.69;;;-1.43;81.50
53868;BME280;41577;47.470;19.080;2023-02-05T00:06:46;101595.97;;;-1.42;81.45
53868;BME280;41577;47.470;19.080;2023-02-05T00:06:57;101597.75;;;-1.42;81.42
53868;BME280;41577;47.470;19.080;2023-02-05T00:07:08;101586.38;;;-1.41;81.53
53868;BME280;41577;47.470;19.080;2023-02-05T00:07:18;101585.50;;;-1.42;81.67
53868;BME280;41577;47.470;19.080;2023-02-05T00:07:30;101594.28;;;-1.43;81.47
53868;BME280;41577;47.470;19.080;2023-02-05T00:07:41;101594.34;;;-1.44;81.40
53868;BME280;41577;47.470;19.080;2023-02-05T00:07:52;101585.50;;;-1.42;81.26
53868;BME280;41577;47.470;19.080;2023-02-05T00:08:03;101592.50;;;-1.42;81.57
53868;BME280;41577;47.470;19.080;2023-02-05T00:08:15;101597.75;;;-1.42;81.68
53868;BME280;41577;47.470;19.080;2023-02-05T00:08:27;101586.50;;;-1.44;81.86
53868;BME280;41577;47.470;19.080;2023-02-05T00:08:38;101584.72;;;-1.44;81.59
53868;BME280;41577;47.470;19.080;2023-02-05T00:08:49;101601.31;;;-1.43;81.83
53868;BME280;41577;47.470;19.080;2023-02-05T00:08:59;101593.44;;;-1.43;81.73
53868;BME280;41577;47.470;19.080;2023-02-05T00:09:10;101602.22;;;-1.44;81.78
53868;BME280;41577;47.470;19.080;2023-02-05T00:09:23;101603.94;;;-1.43;81.62
53868;BME280;41577;47.470;19.080;2023-02-05T00:09:34;101594.28;;;-1.43;81.82
53868;BME280;41577;47.470;19.080;2023-02-05T00:09:45;101598.69;;;-1.43;81.85
53868;BME280;41577;47.470;19.080;2023-02-05T00:09:56;101599.53;;;-1.43;81.84
53868;BME280;41577;47.470;19.080;2023-02-05T00:10:07;101604.78;;;-1.43;81.57
53868;BME280;41577;47.470;19.080;2023-02-05T00:10:18;101600.38;;;-1.42;81.42
53868;BME280;41577;47.470;19.080;2023-02-05T00:10:28;101603.06;;;-1.44;81.56
53868;BME280;41577;47.470;19.080;2023-02-05T00:10:39;101603.94;;;-1.43;81.40
53868;BME280;41577;47.470;19.080;2023-02-05T00:10:50;101602.16;;;-1.43;81.29
53868;BME280;41577;47.470;19.080;2023-02-05T00:11:01;101598.53;;;-1.40;81.29
53868;BME280;41577;47.470;19.080;2023-02-05T00:11:12;101601.22;;;-1.42;81.29
53868;BME280;41577;47.470;19.080;2023-02-05T00:11:23;101600.38;;;-1.42;81.71
53868;BME280;41577;47.470;19.080;2023-02-05T00:11:34;101602.16;;;-1.43;81.81
53868;BME280;41577;47.470;19.080;2023-02-05T00:11:45;101593.44;;;-1.43;81.75
53868;BME280;41577;47.470;19.080;2023-02-05T00:11:57;101606.44;;;-1.42;81.91
53868;BME280;41577;47.470;19.080;2023-02-05T00:12:09;101613.41;;;-1.41;82.22
53868;BME280;41577;47.470;19.080;2023-02-05T00:12:20;101611.63;;;-1.40;81.77
53868;BME280;41577;47.470;19.080;2023-02-05T00:12:31;101602.09;;;-1.41;81.87
53868;BME280;41577;47.470;19.080;2023-02-05T00:12:42;101604.59;;;-1.40;81.85
53868;BME280;41577;47.470;19.080;2023-02-05T00:12:53;101601.16;;;-1.40;81.85
53868;BME280;41577;47.470;19.080;2023-02-05T00:13:04;101609.94;;;-1.41;81.67
53868;BME280;41577;47.470;19.080;2023-02-05T00:13:14;101604.69;;;-1.41;81.74
53868;BME280;41577;47.470;19.080;2023-02-05T00:13:25;101602.09;;;-1.41;81.85
53868;BME280;41577;47.470;19.080;2023-02-05T00:13:37;101603.00;;;-1.42;81.67
53868;BME280;41577;47.470;19.080;2023-02-05T00:13:50;101595.97;;;-1.42;81.66
53868;BME280;41577;47.470;19.080;2023-02-05T00:14:01;101593.34;;;-1.42;81.53
53868;BME280;41577;47.470;19.080;2023-02-05T00:14:12;101602.16;;;-1.43;81.47
53868;BME280;41577;47.470;19.080;2023-02-05T00:14:24;101600.38;;;-1.42;81.41
53868;BME280;41577;47.470;19.080;2023-02-05T00:14:35;101595.06;;;-1.41;81.54
53868;BME280;41577;47.470;19.080;2023-02-05T00:14:46;101598.69;;;-1.43;81.61
53868;BME280;41577;47.470;19.080;2023-02-05T00:14:57;101600.38;;;-1.42;81.31
53868;BME280;41577;47.470;19.080;2023-02-05T00:15:09;101605.63;;;-1.42;81.57
53868;BME280;41577;47.470;19.080;2023-02-05T00:15:20;101598.69;;;-1.43;81.48
53868;BME280;41577;47.470;19.080;2023-02-05T00:15:31;101602.09;;;-1.41;81.64
53868;BME280;41577;47.470;19.080;2023-02-05T00:15:42;101606.44;;;-1.42;81.54
53868;BME280;41577;47.470;19.080;2023-02-05T00:15:53;101590.72;;;-1.42;81.47
53868;BME280;41577;47.470;19.080;2023-02-05T00:16:06;101605.63;;;-1.42;81.68
53868;BME280;41577;47.470;19.080;2023-02-05T00:16:19;101602.16;;;-1.43;81.59
53868;BME280;41577;47.470;19.080;2023-02-05T00:16:30;101595.13;;;-1.42;81.46
53868;BME280;41577;47.470;19.080;2023-02-05T00:16:44;101595.97;;;-1.42;81.27
53868;BME280;41577;47.470;19.080;2023-02-05T00:16:55;101604.69;;;-1.41;81.53
53868;BME280;41577;47.470;19.080;2023-02-05T00:17:06;101595.06;;;-1.41;81.21
53868;BME280;41577;47.470;19.080;2023-02-05T00:17:17;101606.38;;;-1.40;80.99
53868;BME280;41577;47.470;19.080;2023-02-05T00:17:28;101600.31;;;-1.41;81.28
53868;BME280;41577;47.470;19.080;2023-02-05T00:17:39;101599.47;;;-1.41;80.91
53868;BME280;41577;47.470;19.080;2023-02-05T00:17:50;101600.19;;;-1.39;81.15
53868;BME280;41577;47.470;19.080;2023-02-05T00:18:02;101604.59;;;-1.40;81.14
53868;BME280;41577;47.470;19.080;2023-02-05T00:18:13;101602.16;;;-1.43;81.31
53868;BME280;41577;47.470;19.080;2023-02-05T00:18:24;101601.97;;;-1.40;81.32
53868;BME280;41577;47.470;19.080;2023-02-05T00:18:35;101600.19;;;-1.39;81.29
53868;BME280;41577;47.470;19.080;2023-02-05T00:18:48;101604.59;;;-1.40;80.92
53868;BME280;41577;47.470;19.080;2023-02-05T00:18:59;101604.78;;;-1.43;81.26
53868;BME280;41577;47.470;19.080;2023-02-05T00:19:12;101592.28;;;-1.38;80.63
53868;BME280;41577;47.470;19.080;2023-02-05T00:19:23;101597.59;;;-1.39;80.53
53868;BME280;41577;47.470;19.080;2023-02-05T00:19:34;101590.59;;;-1.39;80.53
53868;BME280;41577;47.470;19.080;2023-02-05T00:19:45;101590.66;;;-1.40;80.67
53868;BME280;41577;47.470;19.080;2023-02-05T00:19:56;101601.91;;;-1.38;80.99
53868;BME280;41577;47.470;19.080;2023-02-05T00:20:07;101592.28;;;-1.38;80.98
53868;BME280;41577;47.470;19.080;2023-02-05T00:20:19;101601.06;;;-1.39;80.99
53868;BME280;41577;47.470;19.080;2023-02-05T00:20:30;101602.81;;;-1.39;81.15
53868;BME280;41577;47.470;19.080;2023-02-05T00:20:41;101593.22;;;-1.39;80.75
53868;BME280;41577;47.470;19.080;2023-02-05T00:20:52;101595.06;;;-1.41;80.71
53868;BME280;41577;47.470;19.080;2023-02-05T00:21:03;101593.22;;;-1.39;80.82
53868;BME280;41577;47.470;19.080;2023-02-05T00:21:15;101600.19;;;-1.39;80.89
53868;BME280;41577;47.470;19.080;2023-02-05T00:21:27;101588.97;;;-1.41;80.54
53868;BME280;41577;47.470;19.080;2023-02-05T00:21:39;101592.28;;;-1.38;80.45
53868;BME280;41577;47.470;19.080;2023-02-05T00:21:50;101596.75;;;-1.40;80.83
53868;BME280;41577;47.470;19.080;2023-02-05T00:22:01;101594.91;;;-1.38;80.96
53868;BME280;41577;47.470;19.080;2023-02-05T00:22:13;101600.13;;;-1.38;80.76
53868;BME280;41577;47.470;19.080;2023-02-05T00:22:24;101606.22;;;-1.37;80.96
53868;BME280;41577;47.470;19.080;2023-02-05T00:22:35;101605.38;;;-1.38;80.53
53868;BME280;41577;47.470;19.080;2023-02-05T00:22:46;101600.97;;;-1.37;80.46
53868;BME280;41577;47.470;19.080;2023-02-05T00:22:57;101605.31;;;-1.36;80.08
53868;BME280;41577;47.470;19.080;2023-02-05T00:23:07;101599.28;;;-1.38;80.59
53868;BME280;41577;47.470;19.080;2023-02-05T00:23:18;101600.13;;;-1.38;80.35
53868;BME280;41577;47.470;19.080;2023-02-05T00:23:29;101611.38;;;-1.36;80.50
53868;BME280;41577;47.470;19.080;2023-02-05T00:23:41;101595.72;;;-1.37;80.71
53868;BME280;41577;47.470;19.080;2023-02-05T00:23:52;101608.78;;;-1.36;80.86
53868;BME280;41577;47.470;19.080;2023-02-05T00:24:03;101607.81;;;-1.35;80.60
53868;BME280;41577;47.470;19.080;2023-02-05T00:24:14;101610.44;;;-1.35;80.24
53868;BME280;41577;47.470;19.080;2023-02-05T00:24:26;101598.28;;;-1.36;80.44
53868;BME280;41577;47.470;19.080;2023-02-05T00:24:37;101606.22;;;-1.37;80.01
53868;BME280;41577;47.470;19.080;2023-02-05T00:24:48;101607.09;;;-1.37;80.30
53868;BME280;41577;47.470;19.080;2023-02-05T00:25:00;101588.03;;;-1.40;80.80
53868;BME280;41577;47.470;19.080;2023-02-05T00:25:11;101606.22;;;-1.37;80.66
53868;BME280;41577;47.470;19.080;2023-02-05T00:25:22;101606.31;;;-1.39;80.69
53868;BME280;41577;47.470;19.080;2023-02-05T00:25:34;101600.13;;;-1.38;80.13
53868;BME280;41577;47.470;19.080;2023-02-05T00:25:44;101605.38;;;-1.38;80.69
53868;BME280;41577;47.470;19.080;2023-02-05T00:25:57;101603.59;;;-1.37;80.22
53868;BME280;41577;47.470;19.080;2023-02-05T00:26:08;101605.31;;;-1.36;80.16
53868;BME280;41577;47.470;19.080;2023-02-05T00:26:21;101602.75;;;-1.38;80.12
53868;BME280;41577;47.470;19.080;2023-02-05T00:26:32;101606.22;;;-1.37;80.02
53868;BME280;41577;47.470;19.080;2023-02-05T00:26:43;101608.00;;;-1.38;80.28
53868;BME280;41577;47.470;19.080;2023-02-05T00:26:54;101610.63;;;-1.38;80.21
53868;BME280;41577;47.470;19.080;2023-02-05T00:27:05;101597.59;;;-1.39;80.26
53868;BME280;41577;47.470;19.080;2023-02-05T00:27:17;101603.75;;;-1.40;80.09
53868;BME280;41577;47.470;19.080;2023-02-05T00:27:28;101608.06;;;-1.39;79.82
53868;BME280;41577;47.470;19.080;2023-02-05T00:27:39;101610.69;;;-1.39;79.83
53868;BME280;41577;47.470;19.080;2023-02-05T00:27:50;101609.78;;;-1.38;80.17
53868;BME280;41577;47.470;19.080;2023-02-05T00:28:03;101611.56;;;-1.39;80.27
53868;BME280;41577;47.470;19.080;2023-02-05T00:28:14;101608.16;;;-1.41;80.23
53868;BME280;41577;47.470;19.080;2023-02-05T00:28:25;101615.09;;;-1.40;80.54
53868;BME280;41577;47.470;19.080;2023-02-05T00:28:36;101615.94;;;-1.39;80.43
53868;BME280;41577;47.470;19.080;2023-02-05T00:28:47;101607.16;;;-1.38;80.26
53868;BME280;41577;47.470;19.080;2023-02-05T00:28:58;101605.44;;;-1.39;80.75
53868;BME280;41577;47.470;19.080;2023-02-05T00:29:11;101613.31;;;-1.39;80.81
53868;BME280;41577;47.470;19.080;2023-02-05T00:29:24;101601.22;;;-1.42;80.61
53868;BME280;41577;47.470;19.080;2023-02-05T00:29:34;101614.25;;;-1.40;80.48
53868;BME280;41577;47.470;19.080;2023-02-05T00:29:46;101608.94;;;-1.39;80.69
53868;BME280;41577;47.470;19.080;2023-02-05T00:29:57;101611.56;;;-1.39;80.62
53868;BME280;41577;47.470;19.080;2023-02-05T00:30:09;101613.31;;;-1.39;80.80
53868;BME280;41577;47.470;19.080;2023-02-05T00:30:20;101607.22;;;-1.40;80.57
53868;BME280;41577;47.470;19.080;2023-02-05T00:30:31;101601.91;;;-1.38;79.88
53868;BME280;41577;47.470;19.080;2023-02-05T00:30:41;101601.97;;;-1.40;80.41
53868;BME280;41577;47.470;19.080;2023-02-05T00:30:52;101609.84;;;-1.40;80.20
53868;BME280;41577;47.470;19.080;2023-02-05T00:31:07;101623.78;;;-1.39;79.82
53868;BME280;41577;47.470;19.080;2023-02-05T00:31:20;101623.72;;;-1.38;79.81
53868;BME280;41577;47.470;19.080;2023-02-05T00:31:31;101613.16;;;-1.36;79.51
53868;BME280;41577;47.470;19.080;2023-02-05T00:31:42;101609.94;;;-1.41;79.83
53868;BME280;41577;47.470;19.080;2023-02-05T00:31:53;101613.22;;;-1.38;79.78
53868;BME280;41577;47.470;19.080;2023-02-05T00:32:04;101613.22;;;-1.38;79.86
53868;BME280;41577;47.470;19.080;2023-02-05T00:32:15;101612.41;;;-1.38;79.99
53868;BME280;41577;47.470;19.080;2023-02-05T00:32:26;101613.31;;;-1.39;79.75
53868;BME280;41577;47.470;19.080;2023-02-05T00:32:38;101612.56;;;-1.41;80.00
53868;BME280;41577;47.470;19.080;2023-02-05T00:32:49;101612.41;;;-1.38;80.08
53868;BME280;41577;47.470;19.080;2023-02-05T00:33:01;101626.41;;;-1.39;80.28
53868;BME280;41577;47.470;19.080;2023-02-05T00:33:12;101607.16;;;-1.38;79.93
53868;BME280;41577;47.470;19.080;2023-02-05T00:33:23;101615.09;;;-1.40;79.89
53868;BME280;41577;47.470;19.080;2023-02-05T00:33:34;101614.94;;;-1.37;79.97
53868;BME280;41577;47.470;19.080;2023-02-05T00:33:45;101606.31;;;-1.39;79.49
53868;BME280;41577;47.470;19.080;2023-02-05T00:33:56;101614.19;;;-1.39;79.65
53868;BME280;41577;47.470;19.080;2023-02-05T00:34:09;101620.19;;;-1.37;79.22
53868;BME280;41577;47.470;19.080;2023-02-05T00:34:22;101619.25;;;-1.36;79.43
53868;BME280;41577;47.470;19.080;2023-02-05T00:34:33;101611.44;;;-1.37;79.45
53868;BME280;41577;47.470;19.080;2023-02-05T00:34:44;101603.69;;;-1.39;79.49
53868;BME280;41577;47.470;19.080;2023-02-05T00:34:55;101613.22;;;-1.38;79.51
53868;BME280;41577;47.470;19.080;2023-02-05T00:35:07;101611.44;;;-1.37;79.40
53868;BME280;41577;47.470;19.080;2023-02-05T00:35:18;101617.47;;;-1.35;79.39
53868;BME280;41577;47.470;19.080;2023-02-05T00:35:29;101627.09;;;-1.36;79.50
53868;BME280;41577;47.470;19.080;2023-02-05T00:35:41;101630.56;;;-1.35;79.97
53868;BME280;41577;47.470;19.080;2023-02-05T00:35:54;101625.44;;;-1.37;79.43
53868;BME280;41577;47.470;19.080;2023-02-05T00:36:06;101611.38;;;-1.36;79.33
53868;BME280;41577;47.470;19.080;2023-02-05T00:36:19;101616.63;;;-1.36;79.33
53868;BME280;41577;47.470;19.080;2023-02-05T00:36:30;101619.47;;;-1.40;78.88
53868;BME280;41577;47.470;19.080;2023-02-05T00:36:41;101623.66;;;-1.36;79.08
53868;BME280;41577;47.470;19.080;2023-02-05T00:36:52;101616.69;;;-1.37;79.04
53868;BME280;41577;47.470;19.080;2023-02-05T00:37:03;101616.63;;;-1.36;79.01
53868;BME280;41577;47.470;19.080;2023-02-05T00:37:14;101621.78;;;-1.34;79.73
53868;BME280;41577;47.470;19.080;2023-02-05T00:37:25;101620.09;;;-1.35;79.88
53868;BME280;41577;47.470;19.080;2023-02-05T00:37:36;101623.72;;;-1.38;79.30
53868;BME280;41577;47.470;19.080;2023-02-05T00:37:47;101621.94;;;-1.37;79.40
53868;BME280;41577;47.470;19.080;2023-02-05T00:38:01;101625.50;;;-1.38;79.25
53868;BME280;41577;47.470;19.080;2023-02-05T00:38:11;101633.34;;;-1.38;79.22
53868;BME280;41577;47.470;19.080;2023-02-05T00:38:23;101634.13;;;-1.36;79.00
53868;BME280;41577;47.470;19.080;2023-02-05T00:38:34;101637.66;;;-1.37;78.94
53868;BME280;41577;47.470;19.080;2023-02-05T00:38:46;101629.78;;;-1.37;79.38
53868;BME280;41577;47.470;19.080;2023-02-05T00:38:57;101623.72;;;-1.38;79.06
53868;BME280;41577;47.470;19.080;2023-02-05T00:39:08;101635.81;;;-1.35;79.25
53868;BME280;41577;47.470;19.080;2023-02-05T00:39:19;101627.09;;;-1.36;78.76
53868;BME280;41577;47.470;19.080;2023-02-05T00:39:31;101627.94;;;-1.35;79.30
53868;BME280;41577;47.470;19.080;2023-02-05T00:39:42;101624.50;;;-1.36;79.20
53868;BME280;41577;47.470;19.080;2023-02-05T00:39:53;101631.41;;;-1.35;78.79
53868;BME280;41577;47.470;19.080;2023-02-05T00:40:05;101627.09;;;-1.36;78.63
53868;BME280;41577;47.470;19.080;2023-02-05T00:40:17;101630.50;;;-1.34;78.34
53868;BME280;41577;47.470;19.080;2023-02-05T00:40:28;101629.66;;;-1.34;78.86
53868;BME280;41577;47.470;19.080;2023-02-05T00:40:39;101624.41;;;-1.34;78.42
53868;BME280;41577;47.470;19.080;2023-02-05T00:40:50;101628.78;;;-1.35;79.09
53868;BME280;41577;47.470;19.080;2023-02-05T00:41:01;101616.69;;;-1.37;78.58
53868;BME280;41577;47.470;19.080;2023-02-05T00:41:13;101617.47;;;-1.35;78.74
53868;BME280;41577;47.470;19.080;2023-02-05T00:41:25;101625.25;;;-1.34;78.69
53868;BME280;41577;47.470;19.080;2023-02-05T00:41:35;101619.25;;;-1.36;78.86
53868;BME280;41577;47.470;19.080;2023-02-05T00:41:49;101618.31;;;-1.35;78.62
53868;BME280;41577;47.470;19.080;2023-02-05T00:42:00;101619.25;;;-1.36;78.74
53868;BME280;41577;47.470;19.080;2023-02-05T00:42:12;101621.78;;;-1.34;78.43
53868;BME280;41577;47.470;19.080;2023-02-05T00:42:23;101626.16;;;-1.35;78.60
53868;BME280;41577;47.470;19.080;2023-02-05T00:42:34;101628.72;;;-1.33;78.40
53868;BME280;41577;47.470;19.080;2023-02-05T00:42:46;101627.03;;;-1.34;78.69
53868;BME280;41577;47.470;19.080;2023-02-05T00:42:57;101620.03;;;-1.34;78.69
53868;BME280;41577;47.470;19.080;2023-02-05T00:43:08;101625.25;;;-1.34;78.93
53868;BME280;41577;47.470;19.080;2023-02-05T00:43:19;101616.56;;;-1.34;78.63
53868;BME280;41577;47.470;19.080;2023-02-05T00:43:30;101622.63;;;-1.34;79.15
53868;BME280;41577;47.470;19.080;2023-02-05T00:43:41;101621.78;;;-1.34;78.74
53868;BME280;41577;47.470;19.080;2023-02-05T00:43:53;101627.94;;;-1.35;78.83
53868;BME280;41577;47.470;19.080;2023-02-05T00:44:05;101621.88;;;-1.36;79.00
53868;BME280;41577;47.470;19.080;2023-02-05T00:44:16;101617.56;;;-1.37;79.32
53868;BME280;41577;47.470;19.080;2023-02-05T00:44:28;101626.41;;;-1.39;79.07
53868;BME280;41577;47.470;19.080;2023-02-05T00:44:39;101619.31;;;-1.37;79.03
53868;BME280;41577;47.470;19.080;2023-02-05T00:44:51;101624.56;;;-1.37;79.02
53868;BME280;41577;47.470;19.080;2023-02-05T00:45:02;101627.19;;;-1.37;79.08
53868;BME280;41577;47.470;19.080;2023-02-05T00:45:13;101624.56;;;-1.37;78.88
53868;BME280;41577;47.470;19.080;2023-02-05T00:45:24;101617.63;;;-1.38;79.00
53868;BME280;41577;47.470;19.080;2023-02-05T00:45:35;101614.06;;;-1.37;78.59
53868;BME280;41577;47.470;19.080;2023-02-05T00:45:47;101616.69;;;-1.37;79.09
53868;BME280;41577;47.470;19.080;2023-02-05T00:45:57;101625.31;;;-1.35;78.96
53868;BME280;41577;47.470;19.080;2023-02-05T00:46:09;101617.47;;;-1.35;79.05
53868;BME280;41577;47.470;19.080;2023-02-05T00:46:20;101621.03;;;-1.36;79.01
53868;BME280;41577;47.470;19.080;2023-02-05T00:46:31;101607.22;;;-1.40;79.42
53868;BME280;41577;47.470;19.080;2023-02-05T00:46:42;101618.47;;;-1.38;78.94
53868;BME280;41577;47.470;19.080;2023-02-05T00:46:54;101627.19;;;-1.37;78.92
53868;BME280;41577;47.470;19.080;2023-02-05T00:47:05;101621.09;;;-1.38;79.32
53868;BME280;41577;47.470;19.080;2023-02-05T00:47:16;101621.16;;;-1.39;79.34
53868;BME280;41577;47.470;19.080;2023-02-05T00:47:27;101627.34;;;-1.40;79.37
53868;BME280;41577;47.470;19.080;2023-02-05T00:47:39;101624.72;;;-1.40;79.35
53868;BME280;41577;47.470;19.080;2023-02-05T00:47:50;101623.88;;;-1.41;79.18
53868;BME280;41577;47.470;19.080;2023-02-05T00:48:00;101623.78;;;-1.39;79.24
53868;BME280;41577;47.470;19.080;2023-02-05T00:48:11;101625.56;;;-1.40;79.35
53868;BME280;41577;47.470;19.080;2023-02-05T00:48:23;101622.09;;;-1.40;79.35
53868;BME280;41577;47.470;19.080;2023-02-05T00:48:34;101624.72;;;-1.40;78.98
53868;BME280;41577;47.470;19.080;2023-02-05T00:48:45;101627.34;;;-1.40;79.33
53868;BME280;41577;47.470;19.080;2023-02-05T00:48:56;101619.47;;;-1.40;79.08
53868;BME280;41577;47.470;19.080;2023-02-05T00:49:07;101620.41;;;-1.41;79.40
53868;BME280;41577;47.470;19.080;2023-02-05T00:49:18;101621.34;;;-1.42;79.41
53868;BME280;41577;47.470;19.080;2023-02-05T00:49:30;101626.56;;;-1.42;79.87
53868;BME280;41577;47.470;19.080;2023-02-05T00:49:41;101617.34;;;-1.50;79.48
53868;BME280;41577;47.470;19.080;2023-02-05T00:49:52;101624.88;;;-1.43;79.60
53868;BME280;41577;47.470;19.080;2023-02-05T00:50:04;101627.41;;;-1.42;79.30
53868;BME280;41577;47.470;19.080;2023-02-05T00:50:15;101613.47;;;-1.42;79.59
53868;BME280;41577;47.470;19.080;2023-02-05T00:50:28;101631.81;;;-1.42;79.29
53868;BME280;41577;47.470;19.080;2023-02-05T00:50:38;101620.50;;;-1.43;79.79
53868;BME280;41577;47.470;19.080;2023-02-05T00:50:50;101627.50;;;-1.43;79.76
53868;BME280;41577;47.470;19.080;2023-02-05T00:51:01;101617.94;;;-1.44;79.29
53868;BME280;41577;47.470;19.080;2023-02-05T00:51:12;101621.34;;;-1.42;79.44
53868;BME280;41577;47.470;19.080;2023-02-05T00:51:24;101628.34;;;-1.43;79.44
53868;BME280;41577;47.470;19.080;2023-02-05T00:51:35;101621.34;;;-1.42;79.42
53868;BME280;41577;47.470;19.080;2023-02-05T00:51:46;101621.41;;;-1.44;79.16
53868;BME280;41577;47.470;19.080;2023-02-05T00:51:57;101630.91;;;-1.41;79.33
53868;BME280;41577;47.470;19.080;2023-02-05T00:52:08;101629.13;;;-1.41;79.36
53868;BME280;41577;47.470;19.080;2023-02-05T00:52:19;101630.03;;;-1.42;79.19
53868;BME280;41577;47.470;19.080;2023-02-05T00:52:31;101638.75;;;-1.41;79.57
53868;BME280;41577;47.470;19.080;2023-02-05T00:52:42;101629.13;;;-1.41;79.32
53868;BME280;41577;47.470;19.080;2023-02-05T00:52:53;101624.72;;;-1.40;79.19
53868;BME280;41577;47.470;19.080;2023-02-05T00:53:04;101620.41;;;-1.41;79.21
53868;BME280;41577;47.470;19.080;2023-02-05T00:53:15;101617.81;;;-1.41;79.19
53868;BME280;41577;47.470;19.080;2023-02-05T00:53:26;101623.88;;;-1.41;79.31
53868;BME280;41577;47.470;19.080;2023-02-05T00:53:37;101617.81;;;-1.41;79.60
53868;BME280;41577;47.470;19.080;2023-02-05T00:53:48;101631.75;;;-1.41;78.87
53868;BME280;41577;47.470;19.080;2023-02-05T00:53:59;101626.50;;;-1.41;78.89
53868;BME280;41577;47.470;19.080;2023-02-05T00:54:10;101635.19;;;-1.40;79.20
53868;BME280;41577;47.470;19.080;2023-02-05T00:54:21;101626.50;;;-1.41;79.15
53868;BME280;41577;47.470;19.080;2023-02-05T00:54:32;101628.19;;;-1.40;79.33
53868;BME280;41577;47.470;19.080;2023-02-05T00:54:43;101610.91;;;-1.44;79.22
53868;BME280;41577;47.470;19.080;2023-02-05T00:54:54;101612.56;;;-1.41;79.00
53868;BME280;41577;47.470;19.080;2023-02-05T00:55:05;101620.25;;;-1.38;78.86
53868;BME280;41577;47.470;19.080;2023-02-05T00:55:17;101617.69;;;-1.40;78.68
53868;BME280;41577;47.470;19.080;2023-02-05T00:55:29;101627.28;;;-1.39;78.40
53868;BME280;41577;47.470;19.080;2023-02-05T00:55:40;101620.25;;;-1.38;78.51
53868;BME280;41577;47.470;19.080;2023-02-05T00:55:50;101625.56;;;-1.40;78.46
53868;BME280;41577;47.470;19.080;2023-02-05T00:56:01;101612.47;;;-1.40;78.44
53868;BME280;41577;47.470;19.080;2023-02-05T00:56:12;101621.25;;;-1.41;78.34
53868;BME280;41577;47.470;19.080;2023-02-05T00:56:23;101616.88;;;-1.40;78.58
53868;BME280;41577;47.470;19.080;2023-02-05T00:56:35;101616.88;;;-1.40;78.77
53868;BME280;41577;47.470;19.080;2023-02-05T00:56:46;101617.69;;;-1.40;78.95
53868;BME280;41577;47.470;19.080;2023-02-05T00:56:57;101625.56;;;-1.40;78.65
53868;BME280;41577;47.470;19.080;2023-02-05T00:57:08;101619.47;;;-1.40;78.73
53868;BME280;41577;47.470;19.080;2023-02-05T00:57:19;101616.88;;;-1.40;78.47
53868;BME280;41577;47.470;19.080;2023-02-05T00:57:30;101625.44;;;-1.37;78.34
53868;BME280;41577;47.470;19.080;2023-02-05T00:57:41;101617.63;;;-1.38;78.33
53868;BME280;41577;47.470;19.080;2023-02-05T00:57:52;101617.63;;;-1.38;78.24
53868;BME280;41577;47.470;19.080;2023-02-05T00:58:03;101620.25;;;-1.38;78.05
53868;BME280;41577;47.470;19.080;2023-02-05T00:58:15;101622.03;;;-1.39;78.46